D/T METAR WX W/DIR W/SPE G/SPE TEMP DEWP
5/06/20 07:00 EIME 050600Z 31009KT 9999 FEW016 FEW018CB SCT050 09/07 Q1001 RESHRA NW (310°) 10.4mph 9°C 7°C
5/06/20 06:00 EIME 050500Z 28012KT 9999 FEW016 BKN040 09/06 Q1001 W (280°) 13.8mph 9°C 6°C
5/06/20 05:00 EIME 050400Z 28010KT 9999 FEW016 BKN050 BKN110 09/06 Q1001 W (280°) 11.5mph 9°C 6°C
5/06/20 04:00 EIME 050300Z 28010KT 9999 FEW017 BKN120 09/06 Q1001 W (280°) 11.5mph 9°C 6°C
5/06/20 03:00 EIME 050200Z 28009KT 9999 FEW018 BKN047 BKN110 09/06 Q1001 W (280°) 10.4mph 9°C 6°C
5/06/20 02:00 EIME 050100Z 28011KT 9999 FEW020 BKN130 09/06 Q1002 W (280°) 12.7mph 9°C 6°C
5/06/20 01:00 EIME 050000Z 29009KT 9999 FEW018 SCT040 BKN130 10/06 Q1002 WNW (290°) 10.4mph 10°C 6°C
5/06/20 00:00 EIME 042300Z 29010KT 9999 FEW042 BKN130 11/05 Q1002 WNW (290°) 11.5mph 11°C 5°C
4/06/20 23:00 EIME 042200Z 29009KT 9999 FEW048 BKN240 11/06 Q1002 WNW (290°) 10.4mph 11°C 6°C
4/06/20 22:00 EIME 042100Z 30014KT 9999 FEW028 BKN250 12/06 Q1002 WNW (300°) 16.1mph 12°C 6°C
4/06/20 21:00 EIME 042000Z 29013KT 9999 FEW025 BKN170 14/07 Q1002 WNW (290°) 15.0mph 14°C 7°C
4/06/20 20:00 EIME 041900Z 30013KT 9999 FEW023 SCT060 BKN170 15/07 Q1002 WNW (300°) 15.0mph 15°C 7°C
4/06/20 19:00 EIME 041800Z 29013KT 9999 FEW020 SCT050 BKN200 16/07 Q1002 WNW (290°) 15.0mph 16°C 7°C
4/06/20 18:00 EIME 041700Z 29014KT 9999 FEW025 SCT032 BKN050 16/09 Q1002 WNW (290°) 16.1mph 16°C 9°C
4/06/20 17:00 EIME 041600Z 28012KT 9999 FEW023 SCT028 BKN050 15/10 Q1002 W (280°) 13.8mph 15°C 10°C
4/06/20 16:30 EIME 041530Z 29013KT 9999 FEW018 SCT022 BKN040 15/10 Q1002 WNW (290°) 15.0mph 15°C 10°C
4/06/20 16:00 EIME 041500Z 29011KT 9999 FEW015 SCT030 BKN050 14/10 Q1003 WNW (290°) 12.7mph 14°C 10°C
4/06/20 15:30 EIME 041430Z 27013KT 9999 FEW014 SCT030 BKN037 15/11 Q1003 W (270°) 15.0mph 15°C 11°C
4/06/20 15:00 EIME 041400Z 26011KT 9999 SCT013 SCT025 BKN040 13/11 Q1004 W (260°) 12.7mph 13°C 11°C
4/06/20 14:30 EIME 041330Z 27010KT 9999 FEW014 SCT018 BKN030 12/11 Q1004 W (270°) 11.5mph 12°C 11°C
4/06/20 14:00 EIME 041300Z 26009KT 9999 -RA FEW009 SCT018 BKN024 12/11 Q1004 -RA W (260°) 10.4mph 12°C 11°C
4/06/20 13:30 EIME 041230Z 27010KT 6000 -RADZ FEW004 SCT006 BKN011 12/11 Q1005 -RA -DZ W (270°) 11.5mph 12°C 11°C
4/06/20 13:00 EIME 041200Z 26012KT 6000 -DZ SCT005 BKN007 OVC010 12/10 Q1005 -DZ W (260°) 13.8mph 12°C 10°C
4/06/20 12:30 EIME 041130Z 26012KT 7000 DZ SCT007 OVC170 11/10 Q1006 DZ W (260°) 13.8mph 11°C 10°C
4/06/20 12:00 EIME 041100Z 26011KT 9999 -DZ SCT007 OVC012 11/10 Q1006 -DZ W (260°) 12.7mph 11°C 10°C
4/06/20 11:30 EIME 041030Z 26012KT 8000 -DZ FEW005 SCT006 OVC007 10/10 Q1006 -DZ W (260°) 13.8mph 10°C 10°C
4/06/20 11:00 EIME 041000Z 26012KT 9999 -DZ FEW007 SCT009 OVC011 10/09 Q1007 -DZ W (260°) 13.8mph 10°C 9°C
4/06/20 10:30 EIME 040930Z 27010KT 9999 -DZ SCT007 OVC010 10/09 Q1007 -DZ W (270°) 11.5mph 10°C 9°C
4/06/20 10:00 EIME 040900Z 26009KT 9999 -DZ SCT008 OVC011 10/09 Q1008 -DZ W (260°) 10.4mph 10°C 9°C
4/06/20 09:30 EIME 040830Z 26011KT 9999 -DZ FEW007 OVC011 10/09 Q1008 -DZ W (260°) 12.7mph 10°C 9°C
4/06/20 09:00 EIME 040800Z 27011KT 9999 -DZ FEW012 BKN014 BKN022 10/08 Q1008 -DZ W (270°) 12.7mph 10°C 8°C
4/06/20 08:30 EIME 040730Z 27010KT 9999 FEW012 BKN014 OVC023 10/08 Q1008 W (270°) 11.5mph 10°C 8°C
4/06/20 08:00 EIME 040700Z 27010KT 9999 BKN014 BKN022 10/07 Q1009 W (270°) 11.5mph 10°C 7°C
4/06/20 07:00 EIME 040600Z 25008KT 9999 FEW018 BKN022 09/06 Q1009 WSW (250°) 9.2mph 9°C 6°C
4/06/20 06:00 EIME 040500Z 26008KT 9999 FEW028 BKN040 BKN100 08/05 Q1010 W (260°) 9.2mph 8°C 5°C
4/06/20 05:00 EIME 040400Z 27009KT 9999 FEW025 SCT037 BKN130 07/05 Q1011 W (270°) 10.4mph 7°C 5°C
4/06/20 04:00 EIME 040300Z 25007KT 9999 FEW020 BKN110 07/05 Q1011 WSW (250°) 8.1mph 7°C 5°C
4/06/20 03:00 EIME 040200Z 25007KT 9999 FEW018 BKN110 06/04 Q1012 WSW (250°) 8.1mph 6°C 4°C
4/06/20 02:00 EIME 040100Z 24005KT 9999 FEW025 SCT180 06/04 Q1013 WSW (240°) 5.8mph 6°C 4°C
4/06/20 01:00 EIME 040000Z 29004KT CAVOK 08/04 Q1014 WNW (290°) 4.6mph 8°C 4°C
4/06/20 00:00 EIME 032300Z 32005KT 290V010 CAVOK 10/03 Q1014 NW (320°) 5.8mph 10°C 3°C
3/06/20 23:00 EIME 032200Z 34005KT 290V030 9999 FEW045 BKN200 11/03 Q1015 NNW (340°) 5.8mph 11°C 3°C
3/06/20 22:00 EIME 032100Z 35006KT 9999 FEW038 BKN050 BKN200 11/03 Q1014 N (350°) 6.9mph 11°C 3°C
3/06/20 21:00 EIME 032000Z 36010KT CAVOK 12/03 Q1014 N (360°) 11.5mph 12°C 3°C
3/06/20 20:00 EIME 031900Z 36008KT 9999 BKN038 13/04 Q1015 N (360°) 9.2mph 13°C 4°C
3/06/20 19:00 EIME 031800Z 04009KT 9999 SCT038 BKN050 13/05 Q1014 NE (40°) 10.4mph 13°C 5°C
3/06/20 18:00 EIME 031700Z 04010KT 9999 FEW032 BKN040 13/05 Q1015 NE (40°) 11.5mph 13°C 5°C
3/06/20 17:00 EIME 031600Z 04012KT 9999 SCT032 BKN040 13/06 Q1015 NE (40°) 13.8mph 13°C 6°C
3/06/20 16:00 EIME 031500Z 02010KT 9999 FEW030 BKN042 13/05 Q1015 NNE (20°) 11.5mph 13°C 5°C
3/06/20 15:30 EIME 031430Z 03014KT 9999 FEW020 SCT031 BKN036 13/06 Q1015 NNE (30°) 16.1mph 13°C 6°C
3/06/20 15:00 EIME 031400Z 03014KT 9999 FEW020 SCT031 BKN045 14/06 Q1015 NNE (30°) 16.1mph 14°C 6°C
3/06/20 14:30 EIME 031330Z 03013G23KT 9999 FEW019 SCT024 BKN032 13/06 Q1015 NNE (30°) 15.0mph 26.5mph 13°C 6°C
3/06/20 14:00 EIME 031300Z 04013G23KT 9999 FEW019 SCT024 BKN040 13/06 Q1015 NE (40°) 15.0mph 26.5mph 13°C 6°C
3/06/20 13:30 EIME 031230Z 03014KT 9999 FEW019 BKN024 BKN030 13/07 Q1015 NNE (30°) 16.1mph 13°C 7°C
3/06/20 13:00 EIME 031200Z 04015KT 9999 FEW019 BKN024 BKN032 12/07 Q1015 NE (40°) 17.3mph 12°C 7°C
3/06/20 12:30 EIME 031130Z 03015KT 9999 SCT018 BKN025 BKN035 12/07 Q1015 NNE (30°) 17.3mph 12°C 7°C
3/06/20 12:00 EIME 031100Z 03012G23KT 9999 FEW018 SCT020 BKN030 12/08 Q1015 NNE (30°) 13.8mph 26.5mph 12°C 8°C
3/06/20 11:30 EIME 031030Z 04014KT 9999 FEW010 BKN014 BKN020 11/08 Q1015 NE (40°) 16.1mph 11°C 8°C
3/06/20 11:00 EIME 031000Z 03014KT 9999 FEW006 SCT009 BKN014 11/09 Q1015 NNE (30°) 16.1mph 11°C 9°C
3/06/20 10:30 EIME 030930Z 02013G23KT 9999 -DZ FEW006 BKN009 10/10 Q1015 -DZ NNE (20°) 15.0mph 26.5mph 10°C 10°C
3/06/20 10:00 EIME 030900Z 03014G27KT 6000 -RADZ OVC006 11/10 Q1015 -RA -DZ NNE (30°) 16.1mph 31.1mph 11°C 10°C
3/06/20 09:30 EIME 030830Z 01012KT 330V040 4000 -DZ FEW007 BKN009 11/10 Q1014 -DZ N (10°) 13.8mph 11°C 10°C
3/06/20 09:00 EIME 030800Z 36011KT 320V030 9000 -DZ FEW008 BKN010 11/09 Q1014 -DZ N (360°) 12.7mph 11°C 9°C
3/06/20 08:30 EIME 030730Z 34007KT 290V020 9999 FEW010 BKN012 12/09 Q1014 NNW (340°) 8.1mph 12°C 9°C
3/06/20 08:00 EIME 030700Z 35009KT 9999 FEW010 BKN013 12/08 Q1014 N (350°) 10.4mph 12°C 8°C
3/06/20 07:00 EIME 030600Z 34013KT 290V020 9999 FEW010 BKN017 12/08 Q1014 NNW (340°) 15.0mph 12°C 8°C
3/06/20 06:00 EIME 030500Z 33007KT 9999 FEW008 SCT014 BKN040 13/10 Q1014 NNW (330°) 8.1mph 13°C 10°C
3/06/20 05:00 EIME 030400Z 35009KT 300V020 9999 FEW008 BKN013 13/10 Q1014 N (350°) 10.4mph 13°C 10°C
3/06/20 04:00 EIME 030300Z 33006KT 9999 SCT008 BKN024 13/11 Q1014 NNW (330°) 6.9mph 13°C 11°C
3/06/20 03:00 EIME 030200Z 31006KT 9999 SCT007 BKN008 13/11 Q1015 NW (310°) 6.9mph 13°C 11°C
3/06/20 02:00 EIME 030100Z 27006KT 9999 -RA SCT011 BKN018 13/11 Q1015 -RA W (270°) 6.9mph 13°C 11°C
3/06/20 01:00 EIME 030000Z 28007KT 9999 -RA SCT014 BKN015 14/11 Q1016 -RA W (280°) 8.1mph 14°C 11°C
3/06/20 00:00 EIME 022300Z 30010KT 9999 BKN018 BKN090 14/10 Q1017 WNW (300°) 11.5mph 14°C 10°C
2/06/20 23:00 EIME 022200Z 29006KT 9999 SCT019 BKN100 15/11 Q1017 WNW (290°) 6.9mph 15°C 11°C
2/06/20 22:00 EIME 022100Z 28012KT 9999 -RA FEW018 BKN090 17/10 Q1017 -RA W (280°) 13.8mph 17°C 10°C
2/06/20 21:00 EIME 022000Z 32010KT 290V350 9999 BKN100 SCT250 20/12 Q1016 NW (320°) 11.5mph 20°C 12°C
2/06/20 20:00 EIME 021900Z 30014KT 9999 FEW028 BKN180 22/08 Q1016 WNW (300°) 16.1mph 22°C 8°C
2/06/20 19:00 EIME 021800Z 29011KT 9999 FEW060 BKN130 23/07 Q1017 WNW (290°) 12.7mph 23°C 7°C
2/06/20 18:00 EIME 021700Z 28013KT 9999 FEW060 SCT140 BKN180 24/09 Q1017 W (280°) 15.0mph 24°C 9°C
2/06/20 17:00 EIME 021600Z 29011KT 9999 FEW060 SCT140 BKN180 25/08 Q1018 WNW (290°) 12.7mph 25°C 8°C
2/06/20 16:00 EIME 021500Z 27011KT 9999 FEW060 SCT140 BKN210 25/09 Q1019 W (270°) 12.7mph 25°C 9°C
2/06/20 15:30 EIME 021430Z 30010KT 9999 FEW060 SCT140 BKN200 24/09 Q1019 WNW (300°) 11.5mph 24°C 9°C
2/06/20 15:00 EIME 021400Z 31009KT 270V010 9999 FEW060 SCT140 BKN200 24/08 Q1019 NW (310°) 10.4mph 24°C 8°C
2/06/20 14:30 EIME 021330Z 29011KT 9999 FEW060 SCT130 24/07 Q1020 WNW (290°) 12.7mph 24°C 7°C
2/06/20 14:00 EIME 021300Z 28010KT 240V320 9999 FEW060 SCT200 24/08 Q1020 W (280°) 11.5mph 24°C 8°C
2/06/20 13:30 EIME 021230Z 28009KT 250V330 9999 FEW060 SCT220 24/08 Q1020 W (280°) 10.4mph 24°C 8°C
2/06/20 13:00 EIME 021200Z 28008KT 240V330 9999 FEW032 SCT220 24/08 Q1020 W (280°) 9.2mph 24°C 8°C
2/06/20 12:30 EIME 021130Z 27009KT 230V310 9999 FEW032 SCT250 23/09 Q1021 W (270°) 10.4mph 23°C 9°C
2/06/20 12:00 EIME 021100Z 26009KT 240V320 9999 FEW028 SCT250 23/09 Q1021 W (260°) 10.4mph 23°C 9°C
2/06/20 11:30 EIME 021030Z 28008KT 240V320 9999 FEW028 21/07 Q1022 W (280°) 9.2mph 21°C 7°C
2/06/20 11:00 EIME 021000Z 26005KT 9999 FEW028 21/07 Q1022 W (260°) 5.8mph 21°C 7°C
2/06/20 10:30 EIME 020930Z 29006KT 240V330 CAVOK 21/06 Q1022 WNW (290°) 6.9mph 21°C 6°C
2/06/20 10:00 EIME 020900Z 29007KT CAVOK 20/03 Q1022 WNW (290°) 8.1mph 20°C 3°C
2/06/20 09:30 EIME 020830Z 28007KT CAVOK 19/06 Q1022 W (280°) 8.1mph 19°C 6°C
2/06/20 09:00 EIME 020800Z 30006KT 280V340 CAVOK 18/07 Q1023 WNW (300°) 6.9mph 18°C 7°C
2/06/20 08:30 EIME 020730Z VRB03KT CAVOK 17/08 Q1023 N (0°) 3.5mph 17°C 8°C